Главная страница
METAR-TAF:

METAR-TAF

Аэропорты :

Эребру, Швеция

широта: 59-14N, долгота: 015-03E, высота над уровнем моря: 57 м

Текущие метеонаблюдения

Эта сводка был подготовлена 25 минут назад, в 14:20 UTC
Ветер 8 Узел от северо-восточный
Температура 3°C
Влажность 93%
Давление 1023 hPa
Видимость: 2000 м
дымка

METAR: ESOE 151420Z 04008KT 2000 BR VV003 03/02 Q1023

Время: 15:45 (14:45 UTC)

Прогноз

Эта сводка был подготовлена 15 минут назад, в 14:30 UTC
Прогноз действительный с 15-го 15 UTC до 15-го 22 UTC
Ветер 8 Узел от северо-северо-восточный
Видимость: 5000 м
Рассеянная облачность на высоте 200 фута
временами
С 15-го 15 UTC до 15-го 21 UTC
Видимость: 0700 м
туман

TAF: ESOE 151430Z 1515/1522 03008KT 5000 BKN002 TEMPO 1515/1521 0700 FG

Метеонаблюдения и прогнозы для более 4000 аэропортов (сводки METAR и TAF).

Имеющиеся станции представлены на карте желтыми и красными точками.

Чтобы увидеть название станции, наведите на нее мышь.

Затем щелкните, чтобы увидеть метеонаблюдения и метеопрогнозы.

Управление картой: чтобы увеличить масштаб, щелкните зеленые кнопки с черным крестиком; чтобы уменьшить масштаб, щелкните зеленую кнопку с тире; для просмотра соседних карт щелкайте зеленые стрелки.


METAR-TAF: